Time;durP1;ratioP1;P1;durP2;ratioP2;P2;SDS_P1;SDS_P2;PMS_P1;PMS_P2;Temp;Humidity;BMP_temperature;BMP_pressure;BME280_temperature;BME280_humidity;BME280_pressure;Samples;Min_cycle;Max_cycle;Signal;HPM_P1;HPM_P2
2022/02/26 00:00:10;;;;;;;0.00;0.00;;;;;;;23.06;38.04;101844.66;5041795;28;20065;-59
2022/02/26 00:02:35;;;;;;;0.00;0.00;;;;;;;23.03;38.25;101842.28;5046002;28;20025;-60
2022/02/26 00:05:01;;;;;;;0.00;0.00;;;;;;;23.04;38.07;101844.84;5041725;28;20079;-60
2022/02/26 00:07:26;;;;;;;0.00;0.00;;;;;;;23.01;38.10;101855.28;5040745;28;20037;-60
2022/02/26 00:09:51;;;;;;;0.00;0.00;;;;;;;23.00;37.95;101859.91;5042516;28;20079;-60
2022/02/26 00:12:17;;;;;;;0.00;0.00;;;;;;;22.99;38.21;101863.69;5042209;28;20048;-60
2022/02/26 00:14:42;;;;;;;0.00;0.00;;;;;;;23.00;38.08;101873.63;5041178;28;20112;-60
2022/02/26 00:17:07;;;;;;;0.00;0.00;;;;;;;22.97;37.95;101875.88;5037212;28;20026;-59
2022/02/26 00:19:34;;;;;;;0.08;0.00;;;;;;;22.99;37.80;101893.84;5040019;28;20458;-59
2022/02/26 00:22:00;;;;;;;0.00;0.00;;;;;;;22.95;37.38;101900.72;5038364;28;20021;-60
2022/02/26 00:24:26;;;;;;;0.00;0.00;;;;;;;22.94;37.34;101909.13;5037695;28;20104;-59
2022/02/26 00:26:51;;;;;;;0.00;0.00;;;;;;;22.92;37.57;101912.06;5040812;28;20112;-59
2022/02/26 00:29:17;;;;;;;0.00;0.00;;;;;;;22.96;37.16;101929.00;5042173;28;20022;-60
2022/02/26 00:31:42;;;;;;;0.00;0.00;;;;;;;22.94;37.67;101937.41;5042840;28;20052;-60
2022/02/26 00:34:08;;;;;;;0.00;0.00;;;;;;;22.93;38.00;101941.19;5037205;28;20566;-60
2022/02/26 00:36:33;;;;;;;0.00;0.00;;;;;;;22.92;37.33;101947.72;5046670;28;20461;-60
2022/02/26 00:38:58;;;;;;;0.00;0.00;;;;;;;22.92;37.34;101946.84;5042079;28;20528;-59
2022/02/26 00:41:25;;;;;;;0.00;0.00;;;;;;;22.89;37.94;101953.56;5034959;28;20025;-60
2022/02/26 00:43:51;;;;;;;0.00;0.00;;;;;;;22.90;37.51;101968.97;5039596;28;20025;-60
2022/02/26 00:46:17;;;;;;;0.00;0.00;;;;;;;22.88;37.27;101973.78;5041703;28;20126;-60
2022/02/26 00:51:26;;;;;;;0.00;0.00;;;;;;;22.87;37.96;101991.25;5039696;28;20035;-59
2022/02/26 00:53:51;;;;;;;0.00;0.00;;;;;;;22.87;37.51;101999.50;5041210;28;20108;-60
2022/02/26 00:56:16;;;;;;;0.00;0.00;;;;;;;22.85;37.01;102007.03;5039408;28;20025;-59
2022/02/26 00:58:42;;;;;;;0.00;0.00;;;;;;;22.87;37.65;102015.94;5039059;28;20405;-60
2022/02/26 01:01:07;;;;;;;0.00;0.00;;;;;;;22.86;37.52;102021.59;5036650;28;20472;-59
2022/02/26 01:03:32;;;;;;;0.00;0.00;;;;;;;22.86;36.68;102025.19;5039393;28;20379;-60
2022/02/26 01:05:58;;;;;;;0.00;0.00;;;;;;;22.81;36.73;102022.06;5039787;28;20033;-59
2022/02/26 01:08:23;;;;;;;0.00;0.00;;;;;;;22.83;37.06;102039.22;5039657;28;20017;-60
2022/02/26 01:10:48;;;;;;;0.00;0.00;;;;;;;22.84;37.49;102037.34;5041370;28;20472;-59
2022/02/26 01:13:14;;;;;;;0.00;0.00;;;;;;;22.81;36.79;102039.38;5045084;28;20034;-60
2022/02/26 01:15:39;;;;;;;0.00;0.00;;;;;;;22.80;37.33;102051.38;5044457;28;20104;-59
2022/02/26 01:18:04;;;;;;;0.00;0.00;;;;;;;22.80;36.76;102061.47;5038090;28;20492;-60
2022/02/26 01:20:30;;;;;;;0.00;0.00;;;;;;;22.80;37.48;102067.81;5041694;28;20303;-60
2022/02/26 01:22:55;;;;;;;0.00;0.00;;;;;;;22.79;37.21;102081.69;5039304;28;20033;-59
2022/02/26 01:25:22;;;;;;;0.00;0.00;;;;;;;22.79;36.55;102076.22;5041497;28;20032;-59
2022/02/26 01:27:47;;;;;;;0.17;0.00;;;;;;;22.79;36.92;102076.22;5040822;28;20029;-59
2022/02/26 01:30:12;;;;;;;0.00;0.00;;;;;;;22.80;36.52;102097.13;5038079;28;20044;-59
2022/02/26 01:32:41;;;;;;;0.00;0.00;;;;;;;22.77;37.02;102105.69;5041138;28;20032;-60
2022/02/26 01:35:07;;;;;;;0.00;0.00;;;;;;;22.77;36.65;102105.69;5041513;28;20143;-60
2022/02/26 01:37:32;;;;;;;0.00;0.00;;;;;;;22.77;37.22;102122.13;5040621;28;20116;-59
2022/02/26 01:39:57;;;;;;;0.20;0.00;;;;;;;22.78;36.92;102132.06;5039003;28;20108;-59
2022/02/26 01:42:23;;;;;;;0.00;0.00;;;;;;;22.76;37.25;102134.13;5042041;28;20025;-60
2022/02/26 01:44:50;;;;;;;0.00;0.00;;;;;;;22.75;36.54;102141.50;5040209;28;20026;-60
2022/02/26 01:47:15;;;;;;;0.00;0.00;;;;;;;22.77;36.99;102153.16;5038920;28;20025;-59
2022/02/26 01:49:41;;;;;;;0.00;0.00;;;;;;;22.76;36.90;102156.94;5040934;28;20380;-59
2022/02/26 01:52:07;;;;;;;0.00;0.00;;;;;;;22.77;36.50;102169.59;5038585;28;20064;-59
2022/02/26 01:54:33;;;;;;;0.00;0.00;;;;;;;22.76;36.43;102175.25;5038637;28;20078;-60
2022/02/26 01:56:59;;;;;;;0.00;0.00;;;;;;;22.74;36.13;102183.66;5038797;28;20101;-59
2022/02/26 01:59:24;;;;;;;0.00;0.00;;;;;;;22.74;36.92;102180.06;5038859;28;20033;-59
2022/02/26 02:01:49;;;;;;;0.00;0.00;;;;;;;22.74;36.32;102183.66;5039661;28;20168;-59
2022/02/26 02:04:15;;;;;;;0.00;0.00;;;;;;;22.76;36.31;102191.72;5038312;28;20072;-60
2022/02/26 02:06:42;;;;;;;0.00;0.00;;;;;;;22.72;36.31;102195.81;5043712;28;20460;-60
2022/02/26 02:09:07;;;;;;;0.10;0.10;;;;;;;22.73;36.40;102192.06;5047610;28;20025;-59
2022/02/26 02:11:35;;;;;;;0.00;0.00;;;;;;;22.73;36.71;102203.03;5045299;28;20441;-59
2022/02/26 02:14:01;;;;;;;1.45;0.00;;;;;;;22.73;36.19;102201.13;5041816;28;20415;-59
2022/02/26 02:16:26;;;;;;;0.22;0.10;;;;;;;22.73;36.12;102205.75;5041825;28;20109;-60
2022/02/26 02:18:52;;;;;;;0.00;0.00;;;;;;;22.72;36.19;102217.75;5041423;28;20104;-60
2022/02/26 02:21:19;;;;;;;0.00;0.00;;;;;;;22.72;36.46;102225.97;5040492;28;20021;-59
2022/02/26 02:23:45;;;;;;;0.00;0.00;;;;;;;22.70;36.09;102239.84;5047868;28;20095;-59
2022/02/26 02:26:10;;;;;;;0.00;0.00;;;;;;;22.70;35.91;102236.25;5041581;28;20020;-59
2022/02/26 02:28:37;;;;;;;0.00;0.00;;;;;;;22.72;36.33;102247.91;5042354;28;20029;-59
2022/02/26 02:31:02;;;;;;;0.10;0.00;;;;;;;22.71;36.02;102243.47;5039549;28;20491;-59
2022/02/26 02:33:28;;;;;;;0.00;0.00;;;;;;;22.68;36.08;102241.91;5040379;28;20025;-59
2022/02/26 02:35:53;;;;;;;0.00;0.00;;;;;;;22.70;36.40;102247.22;5044127;28;20368;-59
2022/02/26 02:38:18;;;;;;;0.00;0.00;;;;;;;22.69;35.98;102253.72;5042425;28;20472;-60
2022/02/26 02:40:46;;;;;;;0.00;0.00;;;;;;;22.68;35.94;102250.13;5045029;28;20021;-59
2022/02/26 02:43:11;;;;;;;0.00;0.00;;;;;;;22.70;35.61;102252.72;5047337;28;20066;-59
2022/02/26 02:45:38;;;;;;;0.00;0.00;;;;;;;22.69;35.92;102261.97;5043841;28;20024;-59
2022/02/26 02:48:04;;;;;;;0.00;0.00;;;;;;;22.69;36.01;102264.69;5043198;28;20036;-59
2022/02/26 02:50:30;;;;;;;0.00;0.00;;;;;;;22.69;35.68;102272.94;5045058;28;20538;-59
2022/02/26 02:52:55;;;;;;;0.00;0.00;;;;;;;22.67;36.10;102272.22;5039879;28;20033;-60
2022/02/26 02:55:21;;;;;;;0.05;0.00;;;;;;;22.70;35.64;102291.94;5040822;28;20379;-59
2022/02/26 02:57:49;;;;;;;0.00;0.00;;;;;;;22.68;35.75;102293.13;5042218;28;20040;-59
2022/02/26 03:00:15;;;;;;;0.00;0.00;;;;;;;22.68;35.94;102296.75;5043365;28;20041;-60
2022/02/26 03:02:42;;;;;;;0.00;0.00;;;;;;;22.67;35.79;102305.09;5042602;28;20068;-60
2022/02/26 03:05:08;;;;;;;0.00;0.00;;;;;;;22.67;35.91;102313.31;5041368;28;20052;-59
2022/02/26 03:07:34;;;;;;;0.00;0.00;;;;;;;22.68;35.97;102315.06;5043691;28;20066;-58
2022/02/26 03:10:00;;;;;;;0.00;0.00;;;;;;;22.66;35.32;102322.56;5039471;28;20032;-59
2022/02/26 03:12:25;;;;;;;0.00;0.00;;;;;;;22.68;35.91;102331.53;5042951;28;20434;-60
2022/02/26 03:14:50;;;;;;;0.00;0.00;;;;;;;22.67;35.79;102330.63;5040922;28;20020;-60
2022/02/26 03:17:15;;;;;;;0.00;0.00;;;;;;;22.66;35.85;102336.28;5044325;28;20360;-59
2022/02/26 03:19:41;;;;;;;0.00;0.00;;;;;;;22.68;35.39;102342.50;5040361;28;20030;-59
2022/02/26 03:22:06;;;;;;;0.00;0.00;;;;;;;22.67;36.18;102355.31;5041712;28;20036;-60
2022/02/26 03:24:32;;;;;;;0.00;0.00;;;;;;;22.66;35.11;102355.47;5042994;28;20376;-59
2022/02/26 03:26:57;;;;;;;0.00;0.00;;;;;;;22.65;36.07;102365.56;5040022;28;20099;-59
2022/02/26 03:29:26;;;;;;;0.00;0.00;;;;;;;22.67;35.54;102368.16;5043124;28;20024;-59
2022/02/26 03:31:51;;;;;;;0.00;0.00;;;;;;;22.66;35.73;102374.66;5041900;28;20033;-59
2022/02/26 03:34:19;;;;;;;0.00;0.00;;;;;;;22.66;35.23;102377.41;5042795;28;20067;-59
2022/02/26 03:36:45;;;;;;;0.00;0.00;;;;;;;22.66;35.30;102382.88;5039960;28;20025;-60
2022/02/26 03:39:10;;;;;;;0.30;0.00;;;;;;;22.64;35.19;102390.41;5040405;28;20379;-59
2022/02/26 03:41:36;;;;;;;0.00;0.00;;;;;;;22.65;35.44;102403.09;5040830;28;20859;-58
2022/02/26 03:44:01;;;;;;;0.00;0.00;;;;;;;22.64;35.05;102402.25;5040749;28;20063;-58
2022/02/26 03:46:27;;;;;;;0.00;0.00;;;;;;;22.65;35.74;102412.19;5042157;28;20400;-59
2022/02/26 03:48:53;;;;;;;0.10;0.10;;;;;;;22.64;35.03;102415.09;5041372;28;20029;-60
2022/02/26 03:51:18;;;;;;;0.08;0.00;;;;;;;22.64;34.83;102424.16;5042075;28;20415;-58
2022/02/26 03:53:44;;;;;;;0.03;0.03;;;;;;;22.65;34.88;102422.28;5041095;28;20053;-59
2022/02/26 03:56:09;;;;;;;0.00;0.00;;;;;;;22.65;35.57;102436.00;5040860;28;20033;-59
2022/02/26 03:58:35;;;;;;;0.25;0.00;;;;;;;22.64;35.19;102428.78;5041674;28;20119;-59
2022/02/26 04:01:00;;;;;;;0.00;0.00;;;;;;;22.66;35.34;102445.94;5041698;28;20451;-60
2022/02/26 04:03:25;;;;;;;0.00;0.00;;;;;;;22.65;34.68;102441.47;5043155;28;20375;-59
2022/02/26 04:05:51;;;;;;;0.00;0.00;;;;;;;22.64;35.52;102445.25;5043887;28;20037;-59
2022/02/26 04:08:16;;;;;;;0.00;0.00;;;;;;;22.64;35.25;102450.72;5043815;28;20025;-59
2022/02/26 04:10:41;;;;;;;0.00;0.00;;;;;;;22.63;35.04;102451.75;5041939;28;20074;-60
2022/02/26 04:13:07;;;;;;;0.00;0.00;;;;;;;22.63;35.13;102457.22;5042334;28;20052;-59
2022/02/26 04:15:32;;;;;;;0.00;0.00;;;;;;;22.63;34.73;102457.22;5042103;28;20127;-59
2022/02/26 04:17:57;;;;;;;0.00;0.00;;;;;;;22.63;34.71;102466.31;5040035;28;20028;-59
2022/02/26 04:20:22;;;;;;;0.00;0.00;;;;;;;22.62;34.68;102480.19;5040311;28;20029;-59
2022/02/26 04:22:48;;;;;;;0.00;0.00;;;;;;;22.63;35.18;102498.34;5040308;28;20412;-59
2022/02/26 04:25:13;;;;;;;0.00;0.00;;;;;;;22.63;34.58;102498.34;5036628;28;20074;-58
2022/02/26 04:27:38;;;;;;;0.00;0.00;;;;;;;22.63;34.46;102509.31;5041911;28;20021;-58
2022/02/26 04:30:06;;;;;;;0.00;0.00;;;;;;;22.62;35.06;102518.56;5036716;28;20025;-59
2022/02/26 04:32:32;;;;;;;0.00;0.00;;;;;;;22.63;35.11;102525.75;5036371;28;20082;-59
2022/02/26 04:34:57;;;;;;;0.00;0.00;;;;;;;22.61;35.15;102523.19;5040542;28;20025;-58
2022/02/26 04:37:22;;;;;;;0.00;0.00;;;;;;;22.62;35.12;102518.56;5040363;28;20040;-59
2022/02/26 04:39:48;;;;;;;0.00;0.00;;;;;;;22.63;34.82;102528.50;5040665;28;20064;-59
2022/02/26 04:42:14;;;;;;;0.00;0.00;;;;;;;22.62;34.83;102535.00;5042450;28;20025;-59
2022/02/26 04:44:39;;;;;;;0.00;0.00;;;;;;;22.61;34.42;102533.28;5042445;28;20036;-58
2022/02/26 04:47:05;;;;;;;0.00;0.00;;;;;;;22.62;34.66;102530.38;5037690;28;20041;-59
2022/02/26 04:49:30;;;;;;;0.00;0.00;;;;;;;22.61;34.78;102544.25;5036334;28;20032;-59
2022/02/26 04:51:56;;;;;;;0.00;0.00;;;;;;;22.61;34.17;102547.00;5034862;28;20425;-59
2022/02/26 04:54:21;;;;;;;0.00;0.00;;;;;;;22.60;34.35;102556.25;5039501;28;20029;-60
2022/02/26 04:56:46;;;;;;;0.00;0.00;;;;;;;22.60;34.25;102564.47;5041792;28;20025;-59
2022/02/26 04:59:12;;;;;;;0.08;0.08;;;;;;;22.61;34.19;102586.22;5041006;28;20040;-58
2022/02/26 05:01:37;;;;;;;0.00;0.00;;;;;;;22.66;34.33;102585.75;5039549;28;20033;-59
2022/02/26 05:04:02;;;;;;;0.00;0.00;;;;;;;22.89;34.41;102605.38;5040621;28;20046;-59
2022/02/26 05:06:28;;;;;;;0.00;0.00;;;;;;;22.99;34.24;102609.72;5037951;28;20025;-58
2022/02/26 05:08:53;;;;;;;0.00;0.00;;;;;;;23.07;34.09;102620.75;5039616;28;20017;-58
2022/02/26 05:11:18;;;;;;;0.00;0.00;;;;;;;23.13;33.08;102635.72;5042039;28;20025;-59
2022/02/26 05:13:43;;;;;;;0.00;0.00;;;;;;;23.19;33.51;102636.97;5040890;28;20025;-60
2022/02/26 05:16:09;;;;;;;0.00;0.00;;;;;;;23.24;33.04;102642.84;5039869;28;20028;-60
2022/02/26 05:18:34;;;;;;;0.00;0.00;;;;;;;23.27;32.80;102643.38;5041818;28;20476;-58
2022/02/26 05:21:00;;;;;;;0.00;0.00;;;;;;;23.32;33.29;102646.47;5038093;28;20021;-59
2022/02/26 05:23:25;;;;;;;0.00;0.00;;;;;;;23.36;32.90;102656.13;5039184;28;20036;-59
2022/02/26 05:25:50;;;;;;;0.00;0.00;;;;;;;23.40;32.59;102659.41;5037973;28;20029;-58
2022/02/26 05:28:16;;;;;;;0.00;0.00;;;;;;;23.43;32.74;102656.34;5044194;28;20460;-59
2022/02/26 05:30:41;;;;;;;0.75;0.00;;;;;;;23.46;32.78;102671.63;5039620;28;20079;-59
2022/02/26 05:33:06;;;;;;;0.00;0.00;;;;;;;23.48;33.11;102681.41;5034023;28;20384;-59
2022/02/26 05:35:31;;;;;;;0.00;0.00;;;;;;;23.51;32.83;102691.19;5044300;28;20472;-59
2022/02/26 05:37:57;;;;;;;0.00;0.00;;;;;;;23.54;32.54;102702.75;5037222;28;20383;-59
2022/02/26 05:40:23;;;;;;;0.00;0.00;;;;;;;23.57;32.39;102707.94;5045999;28;20108;-59
2022/02/26 05:42:48;;;;;;;0.00;0.00;;;;;;;23.61;32.64;102709.34;5042510;28;20538;-59
2022/02/26 05:45:14;;;;;;;0.00;0.00;;;;;;;23.61;32.86;102717.56;5041182;28;20032;-59
2022/02/26 05:47:39;;;;;;;0.00;0.00;;;;;;;23.61;32.47;102717.56;5045236;28;20104;-60
2022/02/26 05:50:06;;;;;;;0.00;0.00;;;;;;;23.65;32.62;102720.84;5048074;28;20039;-59
2022/02/26 05:52:31;;;;;;;0.00;0.00;;;;;;;23.66;32.31;102728.91;5042553;28;20028;-59
2022/02/26 05:54:57;;;;;;;0.00;0.00;;;;;;;23.67;32.11;102729.78;5045333;28;20448;-59
2022/02/26 05:57:22;;;;;;;0.00;0.00;;;;;;;23.69;32.15;102728.63;5042338;28;20025;-60
2022/02/26 05:59:47;;;;;;;0.00;0.00;;;;;;;23.69;32.36;102733.25;5040376;28;20028;-58
2022/02/26 06:02:13;;;;;;;0.20;0.00;;;;;;;23.69;32.32;102734.13;5045105;28;20029;-58
2022/02/26 06:04:39;;;;;;;0.00;0.00;;;;;;;23.72;32.22;102737.56;5042440;28;20096;-59
2022/02/26 06:07:04;;;;;;;0.00;0.00;;;;;;;23.75;31.72;102745.47;5041838;28;20479;-60
2022/02/26 06:09:30;;;;;;;0.00;0.00;;;;;;;23.75;31.50;102748.22;5044592;28;20136;-58
2022/02/26 06:11:55;;;;;;;0.00;0.00;;;;;;;23.74;31.90;102741.88;5049195;28;20045;-59
2022/02/26 06:14:20;;;;;;;0.00;0.00;;;;;;;23.76;32.14;102756.28;5048700;28;20029;-59
2022/02/26 06:16:46;;;;;;;0.00;0.00;;;;;;;23.78;31.75;102759.72;5042548;28;20075;-60
2022/02/26 06:19:11;;;;;;;0.00;0.00;;;;;;;23.77;31.87;102760.75;5042286;28;20113;-58
2022/02/26 06:21:37;;;;;;;0.00;0.00;;;;;;;23.79;32.10;102774.31;5036998;28;20037;-59
2022/02/26 06:24:02;;;;;;;0.00;0.00;;;;;;;23.82;32.16;102776.75;5042502;28;20060;-59
2022/02/26 06:26:27;;;;;;;0.00;0.00;;;;;;;23.82;31.85;102771.25;5042126;28;20218;-59
2022/02/26 06:28:55;;;;;;;0.00;0.00;;;;;;;23.82;32.19;102782.25;5042440;28;20040;-59
2022/02/26 06:31:21;;;;;;;0.00;0.00;;;;;;;23.83;31.66;102805.94;5039403;28;20052;-59
2022/02/26 06:33:46;;;;;;;0.00;0.00;;;;;;;23.83;32.05;102790.31;5045009;28;20060;-59
2022/02/26 06:36:11;;;;;;;0.03;0.03;;;;;;;23.84;31.67;102808.50;5044240;28;20032;-59
2022/02/26 06:38:37;;;;;;;0.10;0.10;;;;;;;23.85;31.92;102812.13;5044395;28;20029;-59
2022/02/26 06:41:02;;;;;;;0.00;0.00;;;;;;;23.85;31.77;102815.75;5045577;28;20248;-58
2022/02/26 06:43:27;;;;;;;0.00;0.00;;;;;;;23.86;31.43;102833.09;5044192;28;20029;-59
2022/02/26 06:45:53;;;;;;;0.65;0.00;;;;;;;23.87;31.94;102834.81;5043761;28;20051;-59
2022/02/26 06:48:18;;;;;;;0.00;0.00;;;;;;;23.89;32.00;102844.63;5044661;28;20025;-59
2022/02/26 06:50:43;;;;;;;0.00;0.00;;;;;;;23.89;31.60;102850.13;5039248;28;20033;-59
2022/02/26 06:53:08;;;;;;;0.00;0.00;;;;;;;23.91;31.92;102858.19;5041645;28;20033;-59
2022/02/26 06:55:34;;;;;;;0.00;0.00;;;;;;;23.91;31.94;102858.19;5042603;28;20460;-59
2022/02/26 06:57:59;;;;;;;0.00;0.00;;;;;;;23.90;31.50;102862.84;5046886;28;20021;-60
2022/02/26 07:00:25;;;;;;;0.00;0.00;;;;;;;23.90;31.18;102879.31;5045014;28;20383;-58
2022/02/26 07:02:51;;;;;;;0.00;0.00;;;;;;;23.90;31.08;102884.81;5041523;28;20032;-59
2022/02/26 07:05:16;;;;;;;0.00;0.00;;;;;;;23.93;31.36;102891.88;5043929;28;20061;-59
2022/02/26 07:07:41;;;;;;;0.00;0.00;;;;;;;23.92;31.54;102892.88;5049209;28;20028;-59
2022/02/26 07:10:07;;;;;;;0.00;0.00;;;;;;;23.94;31.26;102901.84;5043919;28;20025;-57
2022/02/26 07:12:33;;;;;;;0.00;0.00;;;;;;;23.93;31.27;102913.84;5046075;28;20071;-59
2022/02/26 07:14:58;;;;;;;0.30;0.00;;;;;;;23.95;30.95;102920.03;5041405;28;20021;-59
2022/02/26 07:17:23;;;;;;;0.00;0.00;;;;;;;23.94;31.14;102907.31;5043398;28;20104;-60
2022/02/26 07:19:49;;;;;;;0.00;0.00;;;;;;;23.95;30.79;102909.06;5045210;28;20029;-59
2022/02/26 07:22:14;;;;;;;0.00;0.00;;;;;;;23.95;31.10;102909.06;5044649;28;20068;-59
2022/02/26 07:24:39;;;;;;;0.00;0.00;;;;;;;23.96;31.45;102910.78;5040924;28;20022;-59
2022/02/26 07:27:05;;;;;;;0.00;0.00;;;;;;;23.95;31.56;102920.03;5040591;28;20041;-59
2022/02/26 07:29:30;;;;;;;0.00;0.00;;;;;;;23.97;31.29;102923.50;5040810;28;20049;-59
2022/02/26 07:31:55;;;;;;;0.00;0.00;;;;;;;23.98;31.28;102919.72;5040871;28;20033;-59
2022/02/26 07:34:21;;;;;;;0.10;0.10;;;;;;;23.96;31.32;102928.13;5042201;28;20438;-59
2022/02/26 07:36:46;;;;;;;0.00;0.00;;;;;;;23.99;31.24;102926.94;5042606;28;20040;-59
2022/02/26 07:39:11;;;;;;;0.00;0.00;;;;;;;23.99;31.22;102946.16;5039941;28;20075;-58
2022/02/26 07:41:37;;;;;;;0.20;0.00;;;;;;;23.97;30.90;102923.50;5042943;28;20036;-58
2022/02/26 07:44:02;;;;;;;0.03;0.00;;;;;;;23.98;31.06;102931.56;5038527;28;20025;-59
2022/02/26 07:46:28;;;;;;;0.00;0.00;;;;;;;24.01;30.69;102928.50;5043607;28;20028;-59
2022/02/26 07:48:53;;;;;;;0.00;0.00;;;;;;;23.99;31.18;102930.53;5044967;28;20036;-60
2022/02/26 07:51:18;;;;;;;0.00;0.00;;;;;;;23.97;30.93;102928.97;5038261;28;20049;-58
2022/02/26 07:53:44;;;;;;;0.00;0.00;;;;;;;24.01;30.96;102941.38;5042956;28;20032;-58
2022/02/26 07:56:10;;;;;;;0.00;0.00;;;;;;;24.00;30.92;102936.91;5042924;28;20028;-59
2022/02/26 07:58:36;;;;;;;0.00;0.00;;;;;;;24.02;30.82;102945.88;5041833;28;20116;-60
2022/02/26 08:01:01;;;;;;;0.00;0.00;;;;;;;24.01;30.45;102957.84;5042137;28;20143;-59
2022/02/26 08:03:26;;;;;;;0.00;0.00;;;;;;;23.99;31.31;102955.28;5040438;28;20033;-58
2022/02/26 08:05:52;;;;;;;0.00;0.00;;;;;;;24.03;30.82;102958.59;5044307;28;20119;-58
2022/02/26 08:08:17;;;;;;;0.00;0.00;;;;;;;24.01;30.60;102964.22;5038554;28;20021;-59
2022/02/26 08:10:43;;;;;;;0.00;0.00;;;;;;;24.02;31.06;102978.84;5041903;28;20036;-60
2022/02/26 08:13:08;;;;;;;0.00;0.00;;;;;;;24.03;30.49;102997.06;5041467;28;20423;-58
2022/02/26 08:15:33;;;;;;;0.00;0.00;;;;;;;24.03;30.65;102986.06;5040633;28;20054;-59
2022/02/26 08:17:58;;;;;;;0.00;0.00;;;;;;;24.04;30.61;102989.69;5040783;28;20029;-59
2022/02/26 08:20:24;;;;;;;0.10;0.00;;;;;;;24.01;31.18;103013.66;5042055;28;20021;-59
2022/02/26 08:22:51;;;;;;;0.00;0.00;;;;;;;24.05;30.55;103007.88;5040548;28;20034;-59
2022/02/26 08:25:17;;;;;;;0.00;0.00;;;;;;;24.04;31.08;103012.53;5039513;28;20374;-58
2022/02/26 08:27:43;;;;;;;0.00;0.00;;;;;;;24.03;30.88;103013.53;5038293;28;20175;-59
2022/02/26 08:30:12;;;;;;;0.00;0.00;;;;;;;24.05;30.49;103024.38;5037581;28;20055;-59
2022/02/26 08:32:37;;;;;;;0.00;0.00;;;;;;;24.07;30.91;103022.34;5038083;28;20036;-59
2022/02/26 08:35:04;;;;;;;0.00;0.00;;;;;;;24.04;31.03;103029.00;5039107;28;20033;-58
2022/02/26 08:37:29;;;;;;;0.00;0.00;;;;;;;24.06;30.58;103035.22;5042583;28;20021;-59
2022/02/26 08:39:55;;;;;;;0.00;0.00;;;;;;;24.06;30.89;103042.59;5040922;28;20021;-59
2022/02/26 08:42:21;;;;;;;0.03;0.00;;;;;;;24.07;30.26;103050.69;5038274;28;20140;-59
2022/02/26 08:44:46;;;;;;;0.00;0.00;;;;;;;24.05;30.55;103052.72;5040193;28;20104;-58
2022/02/26 08:47:12;;;;;;;1.13;0.00;;;;;;;24.06;30.86;103070.94;5042541;28;20689;-59
2022/02/26 08:49:37;;;;;;;0.00;0.00;;;;;;;24.06;30.47;103068.19;5040394;28;20029;-59
2022/02/26 08:52:03;;;;;;;0.00;0.00;;;;;;;24.06;31.00;103070.94;5040762;28;20025;-60
2022/02/26 08:54:29;;;;;;;0.00;0.00;;;;;;;24.06;30.53;103062.69;5038175;28;20114;-59
2022/02/26 08:56:54;;;;;;;0.00;0.00;;;;;;;24.08;30.46;103074.38;5036498;28;20492;-59
2022/02/26 08:59:19;;;;;;;0.00;0.00;;;;;;;24.08;30.48;103084.50;5038386;28;20056;-59
2022/02/26 09:01:45;;;;;;;0.00;0.00;;;;;;;24.07;30.73;103072.66;5040445;28;20056;-59
2022/02/26 09:04:10;;;;;;;0.00;0.00;;;;;;;24.07;30.55;103083.66;5041614;28;20087;-57
2022/02/26 09:06:37;;;;;;;0.00;0.00;;;;;;;24.08;30.12;103085.38;5040450;28;20021;-58
2022/02/26 09:09:05;;;;;;;0.08;0.00;;;;;;;24.07;30.26;103083.66;5040321;28;20441;-59
2022/02/26 09:11:30;;;;;;;0.00;0.00;;;;;;;24.08;30.29;103088.13;5043094;28;20112;-59
2022/02/26 09:13:56;;;;;;;0.00;0.00;;;;;;;24.08;30.53;103090.88;5039925;28;20124;-59
2022/02/26 09:16:21;;;;;;;0.00;0.00;;;;;;;24.11;30.23;103096.06;5039593;28;20021;-59
2022/02/26 09:18:46;;;;;;;0.00;0.00;;;;;;;24.09;30.12;103100.84;5037464;28;20025;-58
2022/02/26 09:21:13;;;;;;;0.00;0.00;;;;;;;24.10;30.17;103099.81;5043170;28;20452;-59
2022/02/26 09:23:39;;;;;;;0.00;0.00;;;;;;;24.09;30.08;103095.34;5043870;28;20062;-59
2022/02/26 09:26:05;;;;;;;0.00;0.00;;;;;;;24.11;30.24;103112.53;5043457;28;20041;-59
2022/02/26 09:28:33;;;;;;;0.00;0.00;;;;;;;24.10;30.14;103113.56;5043868;28;20052;-59
2022/02/26 09:30:58;;;;;;;0.00;0.00;;;;;;;24.10;30.29;103124.56;5038947;28;20029;-59
2022/02/26 09:33:23;;;;;;;0.00;0.00;;;;;;;24.13;29.74;103110.50;5036612;28;20037;-59
2022/02/26 09:35:49;;;;;;;0.00;0.00;;;;;;;24.11;29.92;103111.69;5037255;28;20352;-58
2022/02/26 09:38:14;;;;;;;0.00;0.00;;;;;;;24.10;30.08;103105.31;5044803;28;20048;-59
2022/02/26 09:40:39;;;;;;;0.00;0.00;;;;;;;24.11;30.20;103092.44;5041651;28;20068;-59
2022/02/26 09:43:05;;;;;;;0.00;0.00;;;;;;;;;;5040670;28;20044;-59
2022/02/26 09:45:31;;;;;;;0.10;0.00;;;;;;;24.11;30.61;103118.03;5034770;28;20033;-58
2022/02/26 09:47:56;;;;;;;0.00;0.00;;;;;;;24.13;30.37;103132.47;5034668;28;20399;-59
2022/02/26 09:50:21;;;;;;;0.00;0.00;;;;;;;24.14;30.46;103141.59;5038667;28;20025;-59
2022/02/26 09:52:49;;;;;;;0.00;0.00;;;;;;;24.13;30.56;103148.97;5038635;28;20546;-59
2022/02/26 09:55:14;;;;;;;0.00;0.00;;;;;;;24.13;30.13;103148.09;5038165;28;20432;-59
2022/02/26 09:57:40;;;;;;;0.00;0.00;;;;;;;24.16;30.52;103162.41;5036720;28;20550;-58
2022/02/26 10:00:07;;;;;;;0.00;0.00;;;;;;;24.15;30.04;103151.56;5040303;28;20443;-59
2022/02/26 10:02:35;;;;;;;0.00;0.00;;;;;;;24.15;30.29;103157.94;5039737;28;20037;-59
2022/02/26 10:05:03;;;;;;;0.17;0.00;;;;;;;24.14;30.10;103172.69;5041572;28;20037;-60
2022/02/26 10:07:33;;;;;;;0.00;0.00;;;;;;;24.16;29.91;103165.16;5038008;28;20358;-58
2022/02/26 10:09:59;;;;;;;0.00;0.00;;;;;;;24.13;30.03;103170.97;5037218;28;20105;-59
2022/02/26 10:12:31;;;;;;;0.00;0.00;;;;;;;24.14;30.36;103167.19;5038394;28;20107;-59
2022/02/26 10:14:58;;;;;;;0.00;0.00;;;;;;;24.17;30.08;103161.38;5045970;28;20043;-59
2022/02/26 10:17:32;;;;;;;0.00;0.00;;;;;;;24.16;29.77;103176.16;5038534;28;20021;-60
2022/02/26 10:20:05;;;;;;;0.00;0.00;;;;;;;24.18;29.93;103171.34;5030303;28;20076;-58
2022/02/26 10:22:32;;;;;;;0.00;0.00;;;;;;;24.18;30.00;103184.22;5033174;28;20029;-58
2022/02/26 10:25:06;;;;;;;0.00;0.00;;;;;;;24.18;30.06;103185.09;5035975;28;20097;-59
2022/02/26 10:27:31;;;;;;;0.00;0.00;;;;;;;24.19;29.78;103192.34;5036402;28;20025;-59
2022/02/26 10:29:57;;;;;;;0.00;0.00;;;;;;;24.16;30.24;103189.88;5047677;28;20025;-58
2022/02/26 10:32:22;;;;;;;0.00;0.00;;;;;;;24.20;29.90;103188.59;5039390;28;20021;-59
2022/02/26 10:34:47;;;;;;;0.00;0.00;;;;;;;24.18;30.04;103196.09;5045058;28;20033;-58
2022/02/26 10:37:16;;;;;;;0.00;0.00;;;;;;;24.19;30.11;103197.84;5044618;28;20036;-60
2022/02/26 10:39:45;;;;;;;0.20;0.20;;;;;;;24.19;29.90;103207.97;5046320;28;20029;-58
2022/02/26 10:42:22;;;;;;;0.00;0.00;;;;;;;24.19;30.03;103214.34;5044346;28;20481;-58
2022/02/26 10:45:08;;;;;;;0.00;0.00;;;;;;;24.20;29.63;103215.22;5049246;28;20028;-58
2022/02/26 10:47:36;;;;;;;0.00;0.00;;;;;;;24.19;29.67;103219.84;5041803;28;20472;-58
2022/02/26 10:50:13;;;;;;;0.00;0.00;;;;;;;24.18;30.34;103218.06;5038650;28;20444;-60
2022/02/26 10:52:38;;;;;;;0.00;0.00;;;;;;;24.19;29.88;103222.59;5045005;28;20032;-59
2022/02/26 10:55:07;;;;;;;0.00;0.00;;;;;;;24.20;29.51;103232.56;5041212;28;20108;-58
2022/02/26 10:57:32;;;;;;;0.00;0.00;;;;;;;24.20;29.91;103243.56;5041031;28;20380;-58
2022/02/26 10:59:58;;;;;;;0.10;0.10;;;;;;;24.21;29.87;103228.78;5046378;28;20034;-59
2022/02/26 11:02:25;;;;;;;0.00;0.00;;;;;;;24.20;29.67;103235.31;5042367;28;20029;-59
2022/02/26 11:04:52;;;;;;;0.00;0.00;;;;;;;24.20;29.44;103248.19;5042907;28;20124;-58
2022/02/26 11:07:18;;;;;;;0.20;0.20;;;;;;;24.22;30.24;103251.66;5038857;28;20294;-59
2022/02/26 11:09:47;;;;;;;0.00;0.00;;;;;;;24.21;29.33;103256.28;5044823;28;20025;-59
2022/02/26 11:12:15;;;;;;;0.00;0.00;;;;;;;24.22;30.02;103247.00;5033155;28;20036;-58
2022/02/26 11:14:46;;;;;;;0.00;0.00;;;;;;;24.24;30.42;103247.72;5035691;28;20021;-58
2022/02/26 11:17:13;;;;;;;0.00;0.00;;;;;;;24.21;29.90;103256.28;5040881;28;20025;-58
2022/02/26 11:19:40;;;;;;;0.00;0.00;;;;;;;24.21;29.87;103256.28;5044017;28;20021;-59
2022/02/26 11:22:06;;;;;;;0.00;0.00;;;;;;;24.20;30.03;103260.06;5043915;28;20033;-60